Home   Weather   USA   Sandpoint   Past weeks
Flag for USA

Past Weather in Sandpoint, Idaho, USA — Yesterday and Last 2 Weeks

Currently: 61 °F. Clear. (Weather station: Sandpoint Airport, USA). See more current weather

Past Weather in Sandpoint — Graph

°F

Sandpoint Temperature Yesterday

Maximum temperature yesterday: 84 °F (at 4:35 pm)
Minimum temperature yesterday: 54 °F (at 3:15 am)
Average temperature yesterday: 69 °F

High & Low Weather Summary for the Past Weeks

 TemperatureHumidityPressure
High90 °F (Jun 2, 2:35 pm)100% (Jun 2, 4:35 am)30.17 "Hg (Jun 2, 4:35 am)
Low36 °F (Jun 11, 2:35 am)12% (Jun 4, 6:35 pm)29.74 "Hg (Jun 3, 6:35 pm)
Average60 °F59%29.93 "Hg
* Reported May 30 11:15 pm — Jun 14 11:35 pm, Sandpoint. Weather by CustomWeather, © 2021

Note: Actual official high and low records may vary slightly from our data, if they occured in-between our weather recording intervals... More about our weather records

Sandpoint Weather History for the Previous 24 Hours

Scroll right to see more
 ConditionsComfort  
Time TempWeatherWind HumidityBarometerVisibility
11:35 pm
Mon, Jun 14
61 °FClear.3 mph72%29.88 "Hg10 mi
11:15 pm61 °FClear.No wind72%29.86 "Hg10 mi
10:55 pm61 °FClear.No wind72%29.87 "Hg10 mi
10:35 pm61 °FClear.No wind77%29.87 "Hg10 mi
10:15 pm63 °FClear.No wind73%29.87 "Hg10 mi
9:55 pm64 °FClear.No wind68%29.87 "Hg10 mi
9:35 pm66 °FClear.No wind64%29.87 "Hg10 mi
9:15 pm68 °FClear.No wind60%29.87 "Hg10 mi
8:55 pm68 °FClear.No wind64%29.87 "Hg10 mi
8:35 pm72 °FSunny.5 mph53%29.87 "Hg10 mi
8:15 pm72 °FSunny.5 mph57%29.86 "Hg10 mi
7:55 pm73 °FSunny.3 mph53%29.86 "Hg10 mi
7:35 pm81 °FSunny.3 mph37%29.86 "Hg10 mi
7:15 pm82 °FSunny.No wind32%29.86 "Hg10 mi
6:55 pm82 °FSunny.5 mph32%29.86 "Hg10 mi
6:35 pm82 °FSunny.7 mph35%29.87 "Hg10 mi
6:15 pm82 °FSunny.8 mph35%29.87 "Hg10 mi
5:55 pm82 °FSunny.8 mph28%29.87 "Hg10 mi
5:15 pm84 °FSunny.7 mph31%29.88 "Hg10 mi
4:55 pm84 °FSunny.7 mph31%29.88 "Hg10 mi
4:35 pm84 °FSunny.5 mph31%29.88 "Hg10 mi
3:55 pm82 °FSunny.5 mph37%29.89 "Hg10 mi
3:35 pm82 °FSunny.5 mph32%29.89 "Hg10 mi
3:15 pm82 °FSunny.10 mph35%29.90 "Hg10 mi
2:55 pm82 °FSunny.6 mph35%29.90 "Hg10 mi
2:35 pm82 °FSunny.8 mph32%29.90 "Hg10 mi
2:15 pm82 °FSunny.3 mph35%29.90 "Hg10 mi
1:55 pm81 °FSunny.6 mph37%29.90 "Hg10 mi
1:35 pm81 °FSunny.7 mph37%29.91 "Hg10 mi
1:15 pm81 °FSunny.5 mph39%29.91 "Hg10 mi
12:55 pm79 °FSunny.8 mph42%29.91 "Hg10 mi
11:55 am75 °FSunny.3 mph47%29.93 "Hg10 mi
11:35 am73 °FSunny.7 mph50%29.94 "Hg10 mi
11:15 am73 °FSunny.6 mph50%29.94 "Hg10 mi
10:55 am73 °FSunny.6 mph50%29.94 "Hg10 mi
10:35 am72 °FSunny.6 mph53%29.95 "Hg10 mi
10:15 am72 °FSunny.6 mph53%29.95 "Hg10 mi
9:55 am72 °FSunny.7 mph50%29.95 "Hg10 mi
9:35 am70 °FSunny.3 mph53%29.95 "Hg10 mi
9:15 am70 °FSunny.No wind53%29.96 "Hg10 mi
8:55 am68 °FSunny.5 mph56%29.96 "Hg10 mi
8:35 am68 °FSunny.No wind56%29.96 "Hg10 mi
8:15 am68 °FSunny.5 mph56%29.96 "Hg10 mi
7:55 am66 °FSunny.No wind60%29.96 "Hg10 mi
7:35 am64 °FSunny.No wind64%29.96 "Hg10 mi
7:15 am64 °FSunny.5 mph64%29.95 "Hg10 mi
6:55 am63 °FSunny.No wind68%29.94 "Hg10 mi
6:35 am63 °FSunny.No wind73%29.94 "Hg10 mi
5:55 am55 °FSunny.No wind94%29.92 "Hg10 mi
5:35 am55 °FSunny.No wind88%29.91 "Hg10 mi
5:15 am54 °FSunny.No wind94%29.90 "Hg10 mi
4:55 am54 °FSunny.5 mph94%29.89 "Hg10 mi
4:15 am54 °FClear.No wind94%29.87 "Hg10 mi
3:55 am54 °FClear.No wind94%29.86 "Hg10 mi
3:35 am55 °FClear.3 mph94%29.85 "Hg10 mi
3:15 am54 °FClear.No wind94%29.83 "Hg10 mi
2:55 am55 °FClear.No wind94%29.83 "Hg10 mi
2:35 am55 °FClear.No wind94%29.83 "Hg10 mi
2:15 am55 °FClear.No wind94%29.82 "Hg10 mi
1:55 am55 °FClear.No wind88%29.80 "Hg10 mi
1:35 am57 °FClear.No wind88%29.79 "Hg10 mi
1:15 am59 °FClear.No wind82%29.78 "Hg10 mi
12:55 am57 °FClear.No wind82%29.78 "Hg10 mi
12:35 am59 °FClear.No wind82%29.76 "Hg10 mi
12:15 am61 °FClear.5 mph77%29.76 "Hg10 mi
Weather by CustomWeather, © 2021

See weather overview